KNMI Weerbulletins

Hier vind u de KMNI verwachtingen en de waarnemingen

Bron: KNMI website
Laatste update op 28-11-2020 om 02:43
ZCZC
FBNL50 EHDB 271955
WEERBULLETIN VOOR DE LUCHTVAART
.
GELDIG VOOR: DE DAGLICHTPERIODE VAN ZATERDAG 28 NOVEMBER 2020.
.
SITUATIE: ONDER INVLOED VAN EEN HOGEDRUKGEBIED BOVEN SCANDINAVIE
VOERT EEN ZUIDOOSTELIJKE, GELEIDELIJK OOSTELIJKE STROMING VRIJ
VOCHTIGE LUCHT AAN. EEN ZWAKKE FRONTALE ZONE LIGT VRIJWEL STATIONAIR
BOVEN HET UITERSTE NOORDEN.
.
SIGNIFICANT WEER: NEVEL OF MIST. IN DE TWEEDE HELFT VAN DE OCHTEND
GROTENDEELS OPLOSSEND, MAAR NEVEL KAN VOORAL IN HET MIDDEN EN NOORDEN
OOK IN DE MIDDAG HARDNEKKIG BLIJVEN.
.
WIND: OOST TOT ZUIDOOST 6-9 KN, AAN DE KUST EN BOVEN HET IJSSELMEER
ENKELE KN MEER. AAN HET EINDE VAN DE MIDDAG IN DE ZUIDOOSTELIJKE
HELFT KRIMPEND NAAR NOORDOOST EN MET ENKELE KN AFNEMEND.
.
BEWOLKING: BIJ DE FRONTALE ZONE BKN/OVC ST 500-1000 VT, IN DE OCHTEND
MEEST BKN ST BENEDEN 500 VT, TOPPEN TOT 2000 VT. ELDERS VOORAL IN
MIST BKN ST BENEDEN 500 VT, TOPPEN CIRCA 1000 VT, IN DE TWEEDE HELFT
VAN DE OCHTEND GROTENDEELS OPLOSSEND. VERDER IN DE OCHTEND KANS OP
BKN AC 7000 VT, TOPPEN TOT 9000 VT.
.
ZICHT: AANVANKELIJK VEELAL 1500-3000 M OF MINDER DAN 1500 M. IN DE
TWEEDE HELFT VAN DE OCHTEND OPLOPEND NAAR MEEST 5-8 KM, MOGELIJK MEER
DAN 8 KM. OOK IN DE MIDDAG VOORAL IN HET MIDDEN EN NOORDEN ECHTER
AANHOUDEND KANS OP 3-5 KM.
.
NULGRADEN NIVEAU: ROND FL070.
.
DAGLICHTPERIODE: 07.07 TOT 15.49 UTC.=
NNNN
Bron: KNMI website
Laatste update op 28-11-2020 om 02:43
ZCZC
FC270900 EHWO AAA WOENSDRECHT/WOENSDRECHT   NLD   19 m.
TAF AMD EHWO 271322Z 2713/2722 CNL=
ZCZC
FC270900 EHGR AAB GILZE-RIJEN/GILZE-RIJEN   NLD   14 m.
TAF AMD EHGR 271341Z 2713/2722 CNL=
ZCZC
FT272300 EHAM     AMSTERDAM/SCHIPHOL   NLD   -3 m.
TAF EHAM 272321Z 2800/2906 10006KT 3000 BR BKN004
    BECMG 2801/2804 NSC
    PROB40 2801/2805 2000 BKN002
    PROB30 2805/2809 0600 FG BKN001
    BECMG 2811/2813 8000 NSW
    BECMG 2817/2820 4500 BR
    BECMG 2820/2823 SCT003 BKN005
    PROB40 2820/2906 1500 BCFG SCT001 BKN002=
ZCZC
FT272300 EHBK     MAASTRICHT/MAASTRICHT-AACHEN   NLD   114 m.
TAF EHBK 272318Z 2800/2906 10005KT 4000 BR NSC
    PROB30 2800/2808 2000 BKN002
    BECMG 2808/2811 CAVOK
    PROB40 2818/2823 4000 BR MIFG
    BECMG 2823/2902 2000 BR MIFG
    PROB40 2900/2906 0800 BCFG=
ZCZC
FT272300 EHGG     GRONINGEN/EELDE   NLD   5 m.
TAF EHGG 272318Z 2800/2906 10006KT 4500 BR BKN007
    BECMG 2801/2804 2000 BKN003
    PROB40 2801/2809 0600 FG VV001
    BECMG 2809/2812 6000 NSW BKN007
    PROB40 2812/2821 2000 BR BKN004
    BECMG 2821/2824 2000 BR BKN004=
ZCZC
FT272300 EHLE     LELYSTAD/LELYSTAD   NLD   -3 m.
TAF EHLE 272319Z 2800/2906 10006KT 2000 BR BKN002
    BECMG 2800/2803 NSC
    PROB30 2805/2809 0600 FG BKN001
    BECMG 2811/2813 8000 NSW
    BECMG 2817/2820 4500 BR
    BECMG 2820/2823 SCT003 BKN005
    PROB40 2820/2906 1500 BCFG SCT001 BKN002=
ZCZC
FT272300 EHRD CCA ROTTERDAM/THE HAGUE AIRPORT   NLD   -5 m.
TAF COR EHRD 272327Z 2800/2906 10006KT 7000 NSC
    PROB30 2800/2804 3500 BR
    PROB30 2804/2809 0600 FG BKN001
    BECMG 2811/2813 8000
    BECMG 2817/2820 4500 BR
    BECMG 2821/2824 SCT003 BKN005
    PROB40 2821/2906 1500 BCFG SCT001 BKN002=
ZCZC
FT272300 EHEH     EINDHOVEN/EINDHOVEN   NLD   22 m.
TAF EHEH 272346Z 2800/2906 11005KT 8000 NSC
    PROB40 2803/2808 3000 BR MIFG BKN002
    PROB30 2803/2807 0800 FG BKN001
    BECMG 2810/2813 07007KT
    PROB40 TEMPO 2900/2906 2000 BR BKN002=
ZCZC
FC280100 EHVK RRA VOLKEL/VOLKEL   NLD   21 m.
TAF EHVK 280105Z 2802/2814 10005KT 3500 BR BKN004 OVC090
    PROB40 2803/2806 0800 FG BKN001
    BECMG 2807/2810 CAVOK=
ZCZC
FC280100 EHKD RRC DE KOOY/DE KOOY   NLD   1 m.
TAF EHKD 280118Z 2802/2814 11005KT 1300 BR OVC002
    TEMPO 2802/2810 3500
    BECMG 2810/2812 8000 NSW SCT007=
ZCZC
FC280100 EHLW RRB LEEUWARDEN/LEEUWARDEN   NLD   1 m.
TAF EHLW 280110Z 2802/2814 12007KT 5000 BR BKN006
    BECMG 2802/2804 2000 BR MIFG BKN002
    PROB40 2806/2812 0800 FG BKN001 OVC002=
Bron: KNMI website
Laatste update op 28-11-2020 om 02:43
ZCZC
SA280055 EHFS     VLISSINGEN AWS   NLD   8 m.
METAR EHFS 280055Z AUTO 08007KT 050V120 6000 NSC 07/06 Q1017=
ZCZC
SA280055 EHSG     BSA   NLD   43 m.
METAR EHSG 280055Z AUTO 10012KT //// // FEW007/// 09/07 Q1017 RE//=
ZCZC
SA280125 EHKD     DE KOOY/DE KOOY   NLD   1 m.
METAR EHKD 280125Z AUTO 12005KT 070V150 1800 BR OVC001 06/06 Q1019 RED=
ZCZC
SA280125 EHFD     F3-FB-1   NLD   50 m.
METAR EHFD 280125Z AUTO /////KT 9999 // FEW014/// SCT034/// 10/06
Q1019 RE//=
ZCZC
SA280125 EHAM     AMSTERDAM/SCHIPHOL   NLD   -3 m.
METAR EHAM 280125Z 08005KT 5000 BR FEW004 06/05 Q1019 TEMPO 4000
BKN004=
ZCZC
SA280125 EHVL     VLIELAND   NLD   10 m.
METAR EHVL 280125Z AUTO 13011KT 5000 BR BKN005 OVC007 06/05 Q1020 YLO=
ZCZC
SA280125 EHJR     K13-A   NLD   37 m.
METAR EHJR 280125Z AUTO 00000KT //// // ///////// 10/06 Q1019 RE//
W///H6=
ZCZC
SA280125 EHLE     LELYSTAD/LELYSTAD   NLD   -3 m.
METAR EHLE 280125Z AUTO 08005KT 050V110 2100 BR OVC002 05/05 Q1019=
ZCZC
SA280125 EHLW     LEEUWARDEN/LEEUWARDEN   NLD   1 m.
METAR EHLW 280125Z AUTO 13009KT 040V160 5000 BR OVC006 06/05 Q1020 YLO=
ZCZC
SA280125 EHDL     ARNHEM/DEELEN   NLD   48 m.
METAR EHDL 280125Z AUTO 11006KT 070V240 1200 BR OVC001 03/03 Q1019 RED=
ZCZC
SA280125 EHGG     GRONINGEN/EELDE   NLD   5 m.
METAR EHGG 280125Z AUTO 11004KT 080V140 5000 BR NCD 05/04 Q1020=
ZCZC
SA280125 EHSC     LICHTEILAND GOEREE   NLD   22 m.
METAR EHSC 280125Z AUTO 12014KT 9999 ///////// 08/06 Q1018 W11/H6=
ZCZC
SA280125 EHSA     EURO PLATFORM   NLD   19 m.
METAR EHSA 280125Z AUTO 09015KT 9999 ///////// 09/07 Q1017 W10/H6=
ZCZC
SA280125 EHWO     WOENSDRECHT/WOENSDRECHT   NLD   19 m.
METAR EHWO 280125Z AUTO 09005KT 3700 BR OVC091 05/04 Q1018 GRN=
ZCZC
SA280125 EHRD     ROTTERDAM/THE HAGUE AIRPORT   NLD   -5 m.
METAR EHRD 280125Z AUTO 08007KT 5000 BR NSC 06/05 Q1018 NOSIG=
ZCZC
SA280125 EHGR     GILZE-RIJEN/GILZE-RIJEN   NLD   14 m.
METAR EHGR 280125Z AUTO 10005KT 070V140 7000 BR OVC091 05/04 Q1018 WHT=
ZCZC
SA280125 EHEH     EINDHOVEN/EINDHOVEN   NLD   22 m.
METAR EHEH 280125Z AUTO 11005KT 060V150 3400 BR FEW003 OVC004 04/04
Q1018 YLO=
ZCZC
SA280125 EHVK     VOLKEL/VOLKEL   NLD   21 m.
METAR EHVK 280125Z AUTO 11007KT 090V150 3100 BR OVC003 03/02 Q1019 YLO=
ZCZC
SA280125 EHBK     MAASTRICHT/MAASTRICHT-AACHEN   NLD   114 m.
METAR EHBK 280125Z AUTO 10006KT 8000 NSC 04/03 Q1018=
ZCZC
SA280125 EHFZ     F16-A   NLD   43 m.
METAR EHFZ 280125Z NIL=
ZCZC
SA280125 EHKV     K14-FA-1C   NLD   41 m.
METAR EHKV 280125Z AUTO 15013KT 7000 FEW010 09/06 Q1019=
ZCZC
SA280125 EHMG     L9-FF-1   NLD   44 m.
METAR EHMG 280125Z AUTO 14012KT 5000 BR FEW002 SCT004 OVC005 07/05
Q1020=
ZCZC
SA280125 EHMA     AWG-1   NLD   40 m.
METAR EHMA 280125Z AUTO 11013KT 5000 BR FEW004 BKN005 OVC006 07/05
Q1020=
ZCZC
SA280125 EHDV     D15-FA-1   NLD   42 m.
METAR EHDV 280125Z AUTO 18009KT 9999 SCT020/// SCT030/// 09/04 Q1019=
ZCZC
SA280125 EHAK     A12-CPP   NLD   48 m.
METAR EHAK 280125Z AUTO 18004KT 110V230 9999 FEW000/// SCT007///
BKN028/// 08/06 Q1019=
ZCZC
SA280125 EHQE     HOORN-A   NLD   50 m.
METAR EHQE 280125Z AUTO 08011KT 4300 BR SCT004 BKN006 07/06 Q1019=
ZCZC
SA280125 EHJA     J6-A   NLD   45 m.
METAR EHJA 280125Z AUTO 14007KT 070V170 9999 FEW020/// 09/05 Q1019=
ZCZC
SA280125 EHPG     P11-B   NLD   41 m.
METAR EHPG 280125Z AUTO 10014KT 7000 FEW007 09/07 Q1018=
ZCZC
SA280125 EHHW     BUITENGAATS/BG-OHVS2      42 m.
METAR EHHW 280125Z AUTO 16014KT 130V210 9999 OVC010/// 08/05 Q1020=